Terminal Aerodrome Forecast
Issued by NWS

Home | Current Version | Previous Version | Text Only | Print | Product List | Glossary Off
Versions: 1 2 3 4 5 6 7 8 9 10 11 12 13 14 15 16

000
FTUS43 KBIS 011124
TAFJMS
TAF
KJMS 011124Z 0112/0212 28004KT P6SM VCFG SCT003
     FM011500 24005KT P6SM SKC
     FM011700 26009KT P6SM SKC
     FM020100 19007KT P6SM SKC
     FM020600 20007KT P6SM SCT070=

USA.gov is the U.S. government's official web portal to all federal, state and local government web resources and services.